createdAt,value
2023-05-09T00:00:05.799Z,10.20
2023-05-09T00:01:05.802Z,10.30
2023-05-09T00:02:05.792Z,11.40
2023-05-09T00:03:05.726Z,10.50
2023-05-09T00:04:05.786Z,11.00
2023-05-09T00:05:05.687Z,10.70
2023-05-09T00:06:05.660Z,10.70
2023-05-09T00:07:05.675Z,10.80
2023-05-09T00:08:05.660Z,10.90
2023-05-09T00:09:05.648Z,10.70
2023-05-09T00:10:05.632Z,9.50
2023-05-09T00:11:05.638Z,10.60
2023-05-09T00:12:05.646Z,9.80
2023-05-09T00:13:05.656Z,9.50
2023-05-09T00:14:05.610Z,8.60
2023-05-09T00:15:05.614Z,8.50
2023-05-09T00:16:06.362Z,8.60
2023-05-09T00:17:05.698Z,8.30
2023-05-09T00:18:05.606Z,8.70
2023-05-09T00:19:05.587Z,8.10
2023-05-09T00:20:05.605Z,8.70
2023-05-09T00:21:05.569Z,8.30
2023-05-09T00:22:05.570Z,9.00
2023-05-09T00:23:05.559Z,8.60
2023-05-09T00:24:05.529Z,8.70
2023-05-09T00:25:05.546Z,9.60
2023-05-09T00:26:05.519Z,8.20
2023-05-09T00:27:05.518Z,8.10
2023-05-09T00:28:05.545Z,8.60
2023-05-09T00:29:05.537Z,8.30
2023-05-09T00:30:06.317Z,9.40
2023-05-09T00:31:05.637Z,8.80
2023-05-09T00:33:24.179Z,9.20
2023-05-09T00:34:24.059Z,9.20
2023-05-09T00:35:24.056Z,8.80
2023-05-09T00:36:24.050Z,9.00
2023-05-09T00:37:25.187Z,9.20
2023-05-09T00:38:25.661Z,8.90
2023-05-09T00:39:25.202Z,8.90
2023-05-09T00:40:25.158Z,8.90
2023-05-09T00:41:25.148Z,9.20
2023-05-09T00:42:25.145Z,9.30
2023-05-09T00:43:25.133Z,9.20
2023-05-09T00:44:25.181Z,9.80
2023-05-09T00:45:25.093Z,9.30
2023-05-09T00:46:25.112Z,9.30
2023-05-09T00:47:25.119Z,9.50
2023-05-09T00:48:25.097Z,10.00
2023-05-09T00:49:25.179Z,9.10
2023-05-09T00:50:25.101Z,9.70
2023-05-09T00:51:25.081Z,9.70
2023-05-09T00:52:25.773Z,9.20
2023-05-09T00:53:25.088Z,9.50
2023-05-09T00:54:25.147Z,9.90
2023-05-09T00:55:25.087Z,9.90
2023-05-09T00:56:25.030Z,10.70
2023-05-09T00:57:25.035Z,10.80
2023-05-09T00:58:25.080Z,10.50
2023-05-09T00:59:25.027Z,10.40
2023-05-09T01:00:25.030Z,10.30
2023-05-09T01:01:25.053Z,10.20
2023-05-09T01:02:25.041Z,10.00
2023-05-09T01:03:25.064Z,9.90
2023-05-09T01:04:24.984Z,9.80
2023-05-09T01:05:25.068Z,9.70
2023-05-09T01:06:24.950Z,10.60
2023-05-09T01:07:24.955Z,10.00
2023-05-09T01:08:24.923Z,9.70
2023-05-09T01:09:24.947Z,9.90
2023-05-09T01:10:24.941Z,10.60
2023-05-09T01:11:24.941Z,9.80
2023-05-09T01:12:24.940Z,10.00
2023-05-09T01:13:24.982Z,9.80
2023-05-09T01:14:24.884Z,9.70
2023-05-09T01:15:24.919Z,9.70
2023-05-09T01:16:24.959Z,10.20
2023-05-09T01:17:24.889Z,9.90
2023-05-09T01:18:24.854Z,10.20
2023-05-09T01:19:25.757Z,9.30
2023-05-09T01:20:24.857Z,9.80
2023-05-09T01:21:24.919Z,10.30
2023-05-09T01:22:24.916Z,10.60
2023-05-09T01:23:24.830Z,9.80
2023-05-09T01:24:24.839Z,9.50
2023-05-09T01:25:24.842Z,9.60
2023-05-09T01:26:24.847Z,9.70
2023-05-09T01:27:24.791Z,9.60
2023-05-09T01:28:24.811Z,9.70
2023-05-09T01:29:24.772Z,10.50
2023-05-09T01:30:24.775Z,9.90
2023-05-09T01:31:24.825Z,9.60
2023-05-09T01:32:24.820Z,9.20
2023-05-09T01:33:24.776Z,9.20
2023-05-09T01:34:24.753Z,8.80
2023-05-09T01:35:24.734Z,9.40
2023-05-09T01:36:24.733Z,9.20
2023-05-09T01:37:24.823Z,9.00
2023-05-09T01:38:24.704Z,9.30
2023-05-09T01:39:24.717Z,9.90
2023-05-09T01:40:24.702Z,9.80
2023-05-09T01:41:25.677Z,10.20
2023-05-09T01:42:24.676Z,9.80
2023-05-09T01:43:24.666Z,10.30
2023-05-09T01:44:24.681Z,10.60
2023-05-09T01:45:24.657Z,10.20
2023-05-09T01:46:24.707Z,10.40
2023-05-09T01:47:24.663Z,9.80
2023-05-09T01:48:24.613Z,9.90
2023-05-09T01:49:24.640Z,10.50
2023-05-09T01:50:24.621Z,10.70
2023-05-09T01:51:24.624Z,10.50
2023-05-09T01:52:24.605Z,10.70
2023-05-09T01:53:24.698Z,10.60
2023-05-09T01:54:24.609Z,11.30
2023-05-09T01:55:24.552Z,10.90
2023-05-09T01:56:24.573Z,10.50
2023-05-09T01:57:24.559Z,10.30
2023-05-09T01:58:24.563Z,10.60
2023-05-09T02:00:43.147Z,10.70
2023-05-09T02:01:43.142Z,11.10
2023-05-09T02:02:43.209Z,10.80
2023-05-09T02:03:43.122Z,10.70
2023-05-09T02:04:44.359Z,10.20
2023-05-09T02:05:44.240Z,10.50
2023-05-09T02:06:44.244Z,10.60
2023-05-09T02:07:44.220Z,10.40
2023-05-09T02:08:44.305Z,10.80
2023-05-09T02:09:44.202Z,11.30
2023-05-09T02:10:44.180Z,11.10
2023-05-09T02:11:44.185Z,11.00
2023-05-09T02:12:44.821Z,11.10
2023-05-09T02:13:45.374Z,10.60
2023-05-09T02:14:45.193Z,9.60
2023-05-09T02:15:44.162Z,9.80
2023-05-09T02:16:44.233Z,10.30
2023-05-09T02:17:44.165Z,10.20
2023-05-09T02:18:44.153Z,9.80
2023-05-09T02:19:44.145Z,9.90
2023-05-09T02:20:44.161Z,9.90
2023-05-09T02:21:44.113Z,10.10
2023-05-09T02:22:44.111Z,10.50
2023-05-09T02:23:44.393Z,9.90
2023-05-09T02:24:44.204Z,9.80
2023-05-09T02:25:44.818Z,10.30
2023-05-09T02:26:44.112Z,10.40
2023-05-09T02:27:44.063Z,10.20
2023-05-09T02:28:44.056Z,9.70
2023-05-09T02:29:44.037Z,10.60
2023-05-09T02:30:44.027Z,10.10
2023-05-09T02:31:44.065Z,10.00
2023-05-09T02:32:44.102Z,10.30
2023-05-09T02:33:44.031Z,10.40
2023-05-09T02:34:43.992Z,9.80
2023-05-09T02:35:43.993Z,10.70
2023-05-09T02:36:43.998Z,10.10
2023-05-09T02:37:43.982Z,9.30
2023-05-09T02:38:43.965Z,9.40
2023-05-09T02:39:44.002Z,9.20
2023-05-09T02:40:44.097Z,8.60
2023-05-09T02:41:43.956Z,9.00
2023-05-09T02:42:43.933Z,9.70
2023-05-09T02:43:43.975Z,9.90
2023-05-09T02:44:43.944Z,9.50
2023-05-09T02:45:43.956Z,10.20
2023-05-09T02:46:43.939Z,10.10
2023-05-09T02:47:43.979Z,9.60
2023-05-09T02:48:43.921Z,9.80
2023-05-09T02:49:44.918Z,11.50
2023-05-09T02:50:43.914Z,10.80
2023-05-09T02:52:16.758Z,10.40
2023-05-09T02:52:43.907Z,10.60
2023-05-09T02:53:43.904Z,10.00
2023-05-09T02:54:43.875Z,10.40
2023-05-09T02:55:43.869Z,10.20
2023-05-09T02:56:43.930Z,10.90
2023-05-09T02:57:43.884Z,10.70
2023-05-09T02:58:43.816Z,10.50
2023-05-09T02:59:43.809Z,10.80
2023-05-09T03:00:43.847Z,10.70
2023-05-09T03:01:43.827Z,10.50
2023-05-09T03:02:44.409Z,10.40
2023-05-09T03:03:44.833Z,10.50
2023-05-09T03:04:44.383Z,11.00
2023-05-09T03:05:43.760Z,10.00
2023-05-09T03:06:43.808Z,10.70
2023-05-09T03:07:43.774Z,10.50
2023-05-09T03:08:43.740Z,10.90
2023-05-09T03:09:43.723Z,11.90
2023-05-09T03:10:43.725Z,12.20
2023-05-09T03:11:43.728Z,12.10
2023-05-09T03:12:43.925Z,12.30
2023-05-09T03:13:43.716Z,11.80
2023-05-09T03:14:43.712Z,12.20
2023-05-09T03:15:43.724Z,12.60
2023-05-09T03:16:43.683Z,12.80
2023-05-09T03:17:43.757Z,12.60
2023-05-09T03:18:43.706Z,12.70
2023-05-09T03:19:43.670Z,13.90
2023-05-09T03:20:43.634Z,13.40
2023-05-09T03:21:43.645Z,12.80
2023-05-09T03:22:43.648Z,12.30
2023-05-09T03:23:43.658Z,13.60
2023-05-09T03:24:43.623Z,12.40
2023-05-09T03:25:43.598Z,13.10
2023-05-09T03:26:43.594Z,11.90
2023-05-09T03:27:43.626Z,12.80
2023-05-09T03:28:43.688Z,12.40
2023-05-09T03:29:43.617Z,12.90
2023-05-09T03:30:43.612Z,13.30
2023-05-09T03:31:43.611Z,12.40
2023-05-09T03:32:43.581Z,13.20
2023-05-09T03:33:43.535Z,12.90
2023-05-09T03:34:43.560Z,12.50
2023-05-09T03:35:43.562Z,12.70
2023-05-09T03:36:43.554Z,12.60
2023-05-09T03:37:44.376Z,12.80
2023-05-09T03:38:43.523Z,12.40
2023-05-09T03:39:43.501Z,12.70
2023-05-09T03:40:43.536Z,13.00
2023-05-09T03:41:43.489Z,12.50
2023-05-09T03:42:43.479Z,12.20
2023-05-09T03:44:16.389Z,11.90
2023-05-09T03:45:17.422Z,12.00
2023-05-09T03:45:43.490Z,12.90
2023-05-09T03:46:43.461Z,12.70
2023-05-09T04:02:43.542Z,9.60
2023-05-09T04:03:43.490Z,10.70
2023-05-09T04:04:44.482Z,12.20
2023-05-09T04:05:44.444Z,12.30
2023-05-09T04:06:44.448Z,11.30
2023-05-09T04:07:44.445Z,12.60
2023-05-09T04:08:44.439Z,11.40
2023-05-09T04:10:16.990Z,11.50
2023-05-09T04:10:44.432Z,11.40
2023-05-09T04:11:44.449Z,11.20
2023-05-09T04:12:44.540Z,11.00
2023-05-09T04:13:44.390Z,11.20
2023-05-09T04:14:48.185Z,11.30
2023-05-09T04:15:44.387Z,10.10
2023-05-09T04:16:44.387Z,10.80
2023-05-09T04:17:44.375Z,10.30
2023-05-09T04:18:45.458Z,9.50
2023-05-09T04:19:44.364Z,9.30
2023-05-09T04:20:44.413Z,9.50
2023-05-09T04:21:44.339Z,9.00
2023-05-09T04:22:46.658Z,9.20
2023-05-09T04:23:45.376Z,8.50
2023-05-09T04:24:44.370Z,8.70
2023-05-09T04:25:44.362Z,8.30
2023-05-09T04:26:44.306Z,8.40
2023-05-09T04:27:44.362Z,8.40
2023-05-09T04:28:44.332Z,8.00
2023-05-09T04:29:44.330Z,8.10
2023-05-09T04:30:44.354Z,7.90
2023-05-09T04:31:44.632Z,7.90
2023-05-09T04:32:45.200Z,7.90
2023-05-09T04:33:44.298Z,8.00
2023-05-09T04:34:44.408Z,8.00
2023-05-09T04:35:45.189Z,7.80
2023-05-09T04:36:44.303Z,7.70
2023-05-09T04:37:44.356Z,7.20
2023-05-09T04:38:44.322Z,7.90
2023-05-09T04:39:44.267Z,7.30
2023-05-09T04:40:44.292Z,7.40
2023-05-09T04:41:44.257Z,7.00
2023-05-09T04:42:44.271Z,6.90
2023-05-09T04:43:44.231Z,7.50
2023-05-09T04:44:44.294Z,7.40
2023-05-09T04:45:44.206Z,7.60
2023-05-09T04:46:44.305Z,7.40
2023-05-09T04:47:44.201Z,7.30
2023-05-09T04:48:44.187Z,7.20
2023-05-09T04:49:44.164Z,7.20
2023-05-09T04:50:44.303Z,7.70
2023-05-09T04:51:44.190Z,7.30
2023-05-09T04:52:44.148Z,7.10
2023-05-09T04:53:44.154Z,7.40
2023-05-09T04:54:44.146Z,7.00
2023-05-09T04:55:44.210Z,6.70
2023-05-09T04:56:44.082Z,6.30
2023-05-09T04:57:44.076Z,6.60
2023-05-09T04:58:44.149Z,6.90
2023-05-09T04:59:44.095Z,6.60
2023-05-09T05:00:45.067Z,6.50
2023-05-09T05:01:44.946Z,6.20
2023-05-09T05:02:44.331Z,6.70
2023-05-09T05:03:44.196Z,6.80
2023-05-09T05:04:44.238Z,6.70
2023-05-09T05:05:44.027Z,6.40
2023-05-09T05:06:44.089Z,6.80
2023-05-09T05:07:44.585Z,6.70
2023-05-09T05:08:44.029Z,6.40
2023-05-09T05:09:43.987Z,6.50
2023-05-09T05:10:43.956Z,6.70
2023-05-09T05:11:57.054Z,6.30
2023-05-09T05:12:46.024Z,6.60
2023-05-09T05:13:44.029Z,6.10
2023-05-09T05:14:43.940Z,6.50
2023-05-09T05:15:43.959Z,6.10
2023-05-09T05:16:44.121Z,6.50
2023-05-09T05:17:43.933Z,6.00
2023-05-09T05:18:43.894Z,5.70
2023-05-09T05:19:43.881Z,5.50
2023-05-09T05:20:43.901Z,5.60
2023-05-09T05:21:43.907Z,5.70
2023-05-09T05:22:43.938Z,5.30
2023-05-09T05:23:43.849Z,5.50
2023-05-09T05:24:43.884Z,5.30
2023-05-09T05:25:43.833Z,5.50
2023-05-09T05:26:43.848Z,5.90
2023-05-09T05:27:43.829Z,5.80
2023-05-09T05:28:43.827Z,5.30
2023-05-09T05:29:43.848Z,6.00
2023-05-09T05:30:43.806Z,5.60
2023-05-09T05:31:43.916Z,5.80
2023-05-09T05:32:43.838Z,5.80
2023-05-09T05:33:43.793Z,6.00
2023-05-09T05:34:43.797Z,6.00
2023-05-09T05:35:43.799Z,6.00
2023-05-09T05:36:43.753Z,5.60
2023-05-09T05:38:16.782Z,5.60
2023-05-09T05:38:44.600Z,5.60
2023-05-09T05:39:43.750Z,5.40
2023-05-09T05:40:43.722Z,5.80
2023-05-09T05:41:43.740Z,5.40
2023-05-09T05:42:43.729Z,5.70
2023-05-09T05:43:43.719Z,5.40
2023-05-09T05:44:43.769Z,5.70
2023-05-09T05:45:43.756Z,6.20
2023-05-09T05:46:43.779Z,5.70
2023-05-09T05:47:44.732Z,5.70
2023-05-09T05:48:43.717Z,5.60
2023-05-09T05:49:43.686Z,5.60
2023-05-09T05:50:43.660Z,5.70
2023-05-09T05:51:43.656Z,5.50
2023-05-09T05:52:43.681Z,5.70
2023-05-09T05:53:43.748Z,5.30
2023-05-09T05:54:43.633Z,5.30
2023-05-09T05:55:43.721Z,5.50
2023-05-09T05:56:43.641Z,4.90
2023-05-09T05:57:43.680Z,5.70
2023-05-09T05:58:43.611Z,5.30
2023-05-09T05:59:43.767Z,5.30
2023-05-09T06:00:43.594Z,5.10
2023-05-09T06:01:43.678Z,4.90
2023-05-09T06:02:43.811Z,5.20
2023-05-09T06:03:43.630Z,5.40
2023-05-09T06:04:43.614Z,5.00
2023-05-09T06:05:43.560Z,4.80
2023-05-09T06:06:43.627Z,4.90
2023-05-09T06:07:43.521Z,5.30
2023-05-09T06:08:43.530Z,5.10
2023-05-09T06:09:43.596Z,5.00
2023-05-09T06:10:43.514Z,4.90
2023-05-09T06:11:43.539Z,5.10
2023-05-09T06:12:43.516Z,5.20
2023-05-09T06:13:43.494Z,5.40
2023-05-09T06:14:43.461Z,5.60
2023-05-09T06:15:43.502Z,5.40
2023-05-09T06:16:43.495Z,5.10
2023-05-09T06:17:43.474Z,5.30
2023-05-09T06:18:43.470Z,5.00
2023-05-09T06:19:43.451Z,5.20
2023-05-09T06:20:43.433Z,5.30
2023-05-09T06:21:43.408Z,5.00
2023-05-09T06:22:43.416Z,5.10
2023-05-09T06:23:56.848Z,4.70
2023-05-09T06:24:45.416Z,4.80
2023-05-09T06:25:43.459Z,4.90
2023-05-09T06:26:43.394Z,5.00
2023-05-09T06:27:43.399Z,4.60
2023-05-09T06:28:43.358Z,4.50
2023-05-09T06:29:43.360Z,4.70
2023-05-09T06:30:43.344Z,4.20
2023-05-09T06:31:43.355Z,4.40
2023-05-09T06:32:43.369Z,4.60
2023-05-09T06:33:43.324Z,4.30
2023-05-09T06:34:43.335Z,4.70
2023-05-09T06:35:43.311Z,4.70
2023-05-09T06:36:43.321Z,4.30
2023-05-09T06:37:43.298Z,4.50
2023-05-09T06:38:43.321Z,4.70
2023-05-09T06:39:43.281Z,4.00
2023-05-09T06:40:43.318Z,4.50
2023-05-09T06:41:43.337Z,4.60
2023-05-09T06:42:43.317Z,4.40
2023-05-09T06:43:43.276Z,4.30
2023-05-09T06:44:43.334Z,4.20
2023-05-09T06:45:43.253Z,4.00
2023-05-09T06:46:43.373Z,4.00
2023-05-09T06:47:43.277Z,4.10
2023-05-09T06:48:43.247Z,4.40
2023-05-09T06:49:43.600Z,4.40
2023-05-09T06:50:43.212Z,4.70
2023-05-09T06:51:43.221Z,4.80
2023-05-09T06:52:43.231Z,4.70
2023-05-09T06:53:43.183Z,4.40
2023-05-09T06:54:43.241Z,4.90
2023-05-09T06:55:43.159Z,4.40
2023-05-09T06:56:43.197Z,4.40
2023-05-09T06:57:43.301Z,4.40
2023-05-09T06:58:43.154Z,4.20
2023-05-09T06:59:43.137Z,4.00
2023-05-09T07:00:43.139Z,3.90
2023-05-09T07:01:43.164Z,4.10
2023-05-09T07:02:43.112Z,4.10
2023-05-09T07:03:43.121Z,4.10
2023-05-09T07:04:43.162Z,3.90
2023-05-09T07:05:43.113Z,4.40
2023-05-09T07:06:43.113Z,4.40
2023-05-09T07:07:43.070Z,4.00
2023-05-09T07:08:43.094Z,4.40
2023-05-09T07:09:43.048Z,4.10
2023-05-09T07:10:43.073Z,4.30
2023-05-09T07:11:43.094Z,4.40
2023-05-09T07:12:43.064Z,4.30
2023-05-09T07:13:43.129Z,4.50
2023-05-09T07:14:43.032Z,4.90
2023-05-09T07:15:43.840Z,5.10
2023-05-09T07:16:43.131Z,4.70
2023-05-09T07:17:43.076Z,4.80
2023-05-09T07:18:42.986Z,5.30
2023-05-09T07:19:43.016Z,4.80
2023-05-09T07:20:43.009Z,5.10
2023-05-09T07:21:43.027Z,4.90
2023-05-09T07:22:43.025Z,4.70
2023-05-09T07:23:42.963Z,5.00
2023-05-09T07:25:15.854Z,4.70
2023-05-09T07:25:42.945Z,4.90
2023-05-09T07:27:15.616Z,5.00
2023-05-09T07:27:42.955Z,5.50
2023-05-09T07:28:42.954Z,5.50
2023-05-09T07:29:42.998Z,5.30
2023-05-09T07:30:42.904Z,5.60
2023-05-09T07:31:42.960Z,5.10
2023-05-09T07:32:42.964Z,5.10
2023-05-09T07:33:42.948Z,5.80
2023-05-09T07:34:42.900Z,6.20
2023-05-09T07:35:42.897Z,6.50
2023-05-09T07:36:42.884Z,6.20
2023-05-09T07:37:42.878Z,6.00
2023-05-09T07:38:42.879Z,6.20
2023-05-09T07:39:42.836Z,6.20
2023-05-09T07:40:42.831Z,6.30
2023-05-09T07:41:42.829Z,7.50
2023-05-09T07:42:42.990Z,6.50
2023-05-09T07:43:42.845Z,7.10
2023-05-09T07:44:42.815Z,7.10
2023-05-09T07:45:42.811Z,6.90
2023-05-09T07:46:42.853Z,7.10
2023-05-09T07:47:42.791Z,7.30
2023-05-09T07:48:42.786Z,7.50
2023-05-09T07:49:42.783Z,7.30
2023-05-09T07:50:42.754Z,7.00
2023-05-09T07:51:42.768Z,8.20
2023-05-09T07:52:42.780Z,8.20
2023-05-09T07:53:42.726Z,8.10
2023-05-09T07:54:42.794Z,8.30
2023-05-09T07:55:42.759Z,8.10
2023-05-09T07:56:42.708Z,7.90
2023-05-09T07:57:42.698Z,7.80
2023-05-09T07:58:42.688Z,7.40
2023-05-09T07:59:42.711Z,8.00
2023-05-09T08:00:42.722Z,7.20
2023-05-09T08:01:42.782Z,7.60
2023-05-09T08:02:42.742Z,7.40
2023-05-09T08:03:42.701Z,7.60
2023-05-09T08:04:42.700Z,7.70
2023-05-09T08:05:42.667Z,7.80
2023-05-09T08:06:42.665Z,7.80
2023-05-09T08:07:42.677Z,7.10
2023-05-09T08:08:42.634Z,8.40
2023-05-09T08:09:42.619Z,7.50
2023-05-09T08:10:42.620Z,8.00
2023-05-09T08:11:42.651Z,8.00
2023-05-09T08:12:42.635Z,7.60
2023-05-09T08:13:42.626Z,7.70
2023-05-09T08:14:42.575Z,8.10
2023-05-09T08:15:42.615Z,8.40
2023-05-09T08:16:42.592Z,8.50
2023-05-09T08:17:42.752Z,8.50
2023-05-09T08:18:42.584Z,8.40
2023-05-09T08:19:42.556Z,8.30
2023-05-09T08:20:42.547Z,8.00
2023-05-09T08:21:42.541Z,8.10
2023-05-09T08:22:42.533Z,9.00
2023-05-09T08:23:42.522Z,8.80
2023-05-09T08:24:42.529Z,8.70
2023-05-09T08:25:42.547Z,9.20
2023-05-09T08:26:42.526Z,9.30
2023-05-09T08:27:42.537Z,8.90
2023-05-09T08:28:42.483Z,8.60
2023-05-09T08:29:42.479Z,8.70
2023-05-09T08:30:42.490Z,8.30
2023-05-09T08:31:42.518Z,8.60
2023-05-09T08:32:42.552Z,9.10
2023-05-09T08:33:42.589Z,9.50
2023-05-09T08:34:42.426Z,9.30
2023-05-09T08:35:42.428Z,8.90
2023-05-09T08:36:42.434Z,9.60
2023-05-09T08:37:42.417Z,9.20
2023-05-09T08:38:42.440Z,9.00
2023-05-09T08:39:42.445Z,9.20
2023-05-09T08:40:42.404Z,9.40
2023-05-09T08:41:42.397Z,8.60
2023-05-09T08:42:43.387Z,8.50
2023-05-09T08:43:42.364Z,9.00
2023-05-09T08:44:42.404Z,8.50
2023-05-09T08:45:42.359Z,9.20
2023-05-09T08:46:42.390Z,8.90
2023-05-09T08:47:42.420Z,8.60
2023-05-09T08:48:43.358Z,9.70
2023-05-09T08:49:42.392Z,9.70
2023-05-09T08:50:42.328Z,9.60
2023-05-09T08:51:42.333Z,9.80
2023-05-09T08:52:42.330Z,9.50
2023-05-09T08:53:42.316Z,9.80
2023-05-09T08:54:42.287Z,9.70
2023-05-09T08:55:42.306Z,9.50
2023-05-09T08:56:42.314Z,9.20
2023-05-09T08:57:42.272Z,9.60
2023-05-09T08:58:42.260Z,9.40
2023-05-09T08:59:42.241Z,9.30
2023-05-09T09:00:42.250Z,9.80
2023-05-09T09:01:42.276Z,9.60
2023-05-09T09:02:42.852Z,9.10
2023-05-09T09:03:42.197Z,9.40
2023-05-09T09:04:42.213Z,9.20
2023-05-09T09:05:42.569Z,8.70
2023-05-09T09:06:42.238Z,9.90
2023-05-09T09:07:42.199Z,9.00
2023-05-09T09:08:42.187Z,8.70
2023-05-09T09:09:42.170Z,9.10
2023-05-09T09:10:42.190Z,8.80
2023-05-09T09:11:42.182Z,8.50
2023-05-09T09:12:42.205Z,8.60
2023-05-09T09:13:42.140Z,8.40
2023-05-09T09:14:42.179Z,8.50
2023-05-09T09:15:42.129Z,8.10
2023-05-09T09:16:42.159Z,8.00
2023-05-09T09:17:42.157Z,8.40
2023-05-09T09:18:42.155Z,8.50
2023-05-09T09:19:43.096Z,7.60
2023-05-09T09:20:42.092Z,8.90
2023-05-09T09:21:42.192Z,8.30
2023-05-09T09:22:42.091Z,9.30
2023-05-09T09:23:42.094Z,9.90
2023-05-09T09:24:42.069Z,10.90
2023-05-09T09:25:42.069Z,10.50
2023-05-09T09:26:42.080Z,10.20
2023-05-09T09:27:42.035Z,10.20
2023-05-09T09:28:42.060Z,10.30
2023-05-09T09:29:42.023Z,10.40
2023-05-09T09:30:42.032Z,9.50
2023-05-09T09:31:42.072Z,10.30
2023-05-09T09:32:42.060Z,9.00
2023-05-09T09:33:42.013Z,7.80
2023-05-09T09:34:42.006Z,8.70
2023-05-09T09:35:41.975Z,8.40
2023-05-09T09:37:14.285Z,8.80
2023-05-09T09:37:42.014Z,8.60
2023-05-09T09:38:41.946Z,7.90
2023-05-09T09:39:41.963Z,8.80
2023-05-09T09:40:41.947Z,7.90
2023-05-09T09:41:41.980Z,8.70
2023-05-09T09:42:41.952Z,8.90
2023-05-09T09:43:41.940Z,8.30
2023-05-09T09:44:41.928Z,8.40
2023-05-09T09:45:41.895Z,8.70
2023-05-09T09:46:41.914Z,8.50
2023-05-09T09:47:41.931Z,8.70
2023-05-09T09:48:41.877Z,7.50
2023-05-09T09:49:42.740Z,7.80
2023-05-09T09:50:41.857Z,7.90
2023-05-09T09:51:41.847Z,8.10
2023-05-09T09:52:41.946Z,7.10
2023-05-09T09:53:41.835Z,7.80
2023-05-09T09:54:41.874Z,7.30
2023-05-09T09:55:42.504Z,8.00
2023-05-09T09:56:41.836Z,7.70
2023-05-09T09:57:41.832Z,7.20
2023-05-09T09:58:41.798Z,7.20
2023-05-09T09:59:41.831Z,7.50
2023-05-09T10:00:41.786Z,7.30
2023-05-09T10:01:41.847Z,7.40
2023-05-09T10:02:41.774Z,6.40
2023-05-09T10:03:41.816Z,7.20
2023-05-09T10:04:41.795Z,7.40
2023-05-09T10:05:41.754Z,6.90
2023-05-09T10:06:41.734Z,6.80
2023-05-09T10:07:41.723Z,6.80
2023-05-09T10:08:41.811Z,6.70
2023-05-09T10:09:41.735Z,6.90
2023-05-09T10:10:41.721Z,6.70
2023-05-09T10:11:41.715Z,6.40
2023-05-09T10:12:41.768Z,6.00
2023-05-09T10:13:41.712Z,6.90
2023-05-09T10:14:41.723Z,6.50
2023-05-09T10:15:52.892Z,6.40
2023-05-09T10:16:44.765Z,6.60
2023-05-09T10:17:42.957Z,6.30
2023-05-09T10:18:42.523Z,6.20
2023-05-09T10:19:41.662Z,6.20
2023-05-09T10:20:41.657Z,5.80
2023-05-09T10:21:41.670Z,6.30
2023-05-09T10:22:41.672Z,6.20
2023-05-09T10:23:41.629Z,6.20
2023-05-09T10:24:41.704Z,6.30
2023-05-09T10:25:41.625Z,5.90
2023-05-09T10:26:41.626Z,6.10
2023-05-09T10:27:41.629Z,6.10
2023-05-09T10:28:41.591Z,6.40
2023-05-09T10:29:41.583Z,6.40
2023-05-09T10:30:41.568Z,6.40
2023-05-09T10:31:41.600Z,6.30
2023-05-09T10:32:41.609Z,6.00
2023-05-09T10:33:41.550Z,7.20
2023-05-09T10:34:41.574Z,7.50
2023-05-09T10:35:42.530Z,6.80
2023-05-09T10:36:41.546Z,6.00
2023-05-09T10:37:41.550Z,6.20
2023-05-09T10:38:41.545Z,6.10
2023-05-09T10:39:41.544Z,6.00
2023-05-09T10:40:41.572Z,6.20
2023-05-09T10:41:41.517Z,6.00
2023-05-09T10:42:41.507Z,6.00
2023-05-09T10:43:41.482Z,5.80
2023-05-09T10:44:41.481Z,6.10
2023-05-09T10:45:41.470Z,6.20
2023-05-09T10:46:41.526Z,6.20
2023-05-09T10:47:41.476Z,6.10
2023-05-09T10:48:41.490Z,6.30
2023-05-09T10:49:41.548Z,6.30
2023-05-09T10:50:41.421Z,6.10
2023-05-09T10:51:41.413Z,6.20
2023-05-09T10:52:41.434Z,6.20
2023-05-09T10:53:41.410Z,6.30
2023-05-09T10:54:41.432Z,6.20
2023-05-09T10:55:41.393Z,6.10
2023-05-09T10:56:41.457Z,6.20
2023-05-09T10:57:41.363Z,6.50
2023-05-09T10:58:41.353Z,6.60
2023-05-09T10:59:42.296Z,6.80
2023-05-09T11:00:41.446Z,6.40
2023-05-09T11:01:41.391Z,6.30
2023-05-09T11:02:42.204Z,6.40
2023-05-09T11:03:41.650Z,6.00
2023-05-09T11:04:41.357Z,6.00
2023-05-09T11:05:41.308Z,6.10
2023-05-09T11:06:41.317Z,5.90
2023-05-09T11:07:41.297Z,6.10
2023-05-09T11:08:41.311Z,6.30
2023-05-09T11:09:41.385Z,6.10
2023-05-09T11:10:41.308Z,6.00
2023-05-09T11:11:41.280Z,5.70
2023-05-09T11:12:41.411Z,5.60
2023-05-09T11:13:41.261Z,6.40
2023-05-09T11:14:41.269Z,6.20
2023-05-09T11:15:41.291Z,6.00
2023-05-09T11:16:41.328Z,6.10
2023-05-09T11:17:41.292Z,5.80
2023-05-09T11:18:41.211Z,6.60
2023-05-09T11:19:41.211Z,6.20
2023-05-09T11:20:41.200Z,5.90
2023-05-09T11:21:41.217Z,5.90
2023-05-09T11:22:41.189Z,6.10
2023-05-09T11:23:41.191Z,5.90
2023-05-09T11:24:41.193Z,6.00
2023-05-09T11:25:41.210Z,5.80
2023-05-09T11:26:41.163Z,5.80
2023-05-09T11:27:41.153Z,5.60
2023-05-09T11:28:41.259Z,5.70
2023-05-09T11:29:41.131Z,5.60
2023-05-09T11:30:41.157Z,5.80
2023-05-09T11:31:41.192Z,5.30
2023-05-09T11:32:41.139Z,5.20
2023-05-09T11:33:41.117Z,5.60
2023-05-09T11:34:41.115Z,5.10
2023-05-09T11:35:41.114Z,4.80
2023-05-09T11:36:41.114Z,5.00
2023-05-09T11:37:41.106Z,4.90
2023-05-09T11:38:41.093Z,5.10
2023-05-09T11:39:41.098Z,4.80
2023-05-09T11:40:41.073Z,4.30
2023-05-09T11:41:41.083Z,4.10
2023-05-09T11:42:41.047Z,4.10
2023-05-09T11:43:41.059Z,4.00
2023-05-09T11:44:41.103Z,3.50
2023-05-09T11:45:41.089Z,4.10
2023-05-09T11:46:40.996Z,4.10
2023-05-09T11:47:41.113Z,4.20
2023-05-09T11:48:40.989Z,3.80
2023-05-09T11:49:41.006Z,3.70
2023-05-09T11:50:41.037Z,3.70
2023-05-09T11:51:40.970Z,4.20
2023-05-09T11:52:41.717Z,3.50
2023-05-09T11:53:40.977Z,3.80
2023-05-09T11:54:40.951Z,3.60
2023-05-09T11:55:40.930Z,4.00
2023-05-09T11:56:40.941Z,3.80
2023-05-09T11:57:40.950Z,3.40
2023-05-09T11:58:40.948Z,3.40
2023-05-09T11:59:40.918Z,3.50
2023-05-09T12:00:40.978Z,3.60
2023-05-09T12:01:40.890Z,3.50
2023-05-09T12:02:41.081Z,3.40
2023-05-09T12:03:40.932Z,3.00
2023-05-09T12:04:40.917Z,3.60
2023-05-09T12:05:40.868Z,3.60
2023-05-09T12:06:40.873Z,3.50
2023-05-09T12:07:40.872Z,3.40
2023-05-09T12:08:40.867Z,3.40
2023-05-09T12:09:40.839Z,3.40
2023-05-09T12:10:40.843Z,3.40
2023-05-09T12:11:40.829Z,3.20
2023-05-09T12:12:40.830Z,3.10
2023-05-09T12:13:40.844Z,3.10
2023-05-09T12:14:40.848Z,2.90
2023-05-09T12:15:43.827Z,3.20
2023-05-09T12:16:40.831Z,3.00
2023-05-09T12:17:40.797Z,2.90
2023-05-09T12:18:40.749Z,3.00
2023-05-09T12:19:40.774Z,3.10
2023-05-09T12:20:40.760Z,3.00
2023-05-09T12:21:41.756Z,3.30
2023-05-09T12:22:40.760Z,3.00
2023-05-09T12:23:40.757Z,2.80
2023-05-09T12:24:40.741Z,2.90
2023-05-09T12:25:40.743Z,3.00
2023-05-09T12:26:40.705Z,2.80
2023-05-09T12:27:40.700Z,2.80
2023-05-09T12:28:40.710Z,3.20
2023-05-09T12:29:40.681Z,2.90
2023-05-09T12:30:41.244Z,2.80
2023-05-09T12:31:40.785Z,2.90
2023-05-09T12:32:40.773Z,2.80
2023-05-09T12:33:40.671Z,3.00
2023-05-09T12:34:40.635Z,3.10
2023-05-09T12:35:40.616Z,3.10
2023-05-09T12:36:40.670Z,2.90
2023-05-09T12:37:40.615Z,3.00
2023-05-09T12:38:40.624Z,3.00
2023-05-09T12:39:40.610Z,3.30
2023-05-09T12:40:41.293Z,2.90
2023-05-09T12:41:53.585Z,2.60
2023-05-09T12:42:42.578Z,3.10
2023-05-09T12:43:40.578Z,2.90
2023-05-09T12:44:40.577Z,2.80
2023-05-09T12:45:41.896Z,2.50
2023-05-09T12:46:40.613Z,2.80
2023-05-09T12:47:40.650Z,2.60
2023-05-09T12:48:40.657Z,2.50
2023-05-09T12:49:41.196Z,2.50
2023-05-09T12:50:40.541Z,2.40
2023-05-09T12:51:40.516Z,2.70
2023-05-09T12:52:50.538Z,2.80
2023-05-09T12:53:43.424Z,2.50
2023-05-09T12:54:40.541Z,2.50
2023-05-09T12:55:40.526Z,2.70
2023-05-09T12:56:40.456Z,2.40
2023-05-09T12:57:41.335Z,2.50
2023-05-09T12:58:40.536Z,2.50
2023-05-09T12:59:40.453Z,2.20
2023-05-09T13:00:40.473Z,2.60
2023-05-09T13:01:40.432Z,2.90
2023-05-09T13:02:41.484Z,2.60
2023-05-09T13:03:40.557Z,2.80
2023-05-09T13:04:41.423Z,2.60
2023-05-09T13:05:40.401Z,2.50
2023-05-09T13:06:40.405Z,2.80
2023-05-09T13:07:40.390Z,2.40
2023-05-09T13:08:40.376Z,2.40
2023-05-09T13:09:40.377Z,2.60
2023-05-09T13:10:40.397Z,2.50
2023-05-09T13:11:40.357Z,2.60
2023-05-09T13:12:40.373Z,2.50
2023-05-09T13:13:40.332Z,2.60
2023-05-09T13:14:40.381Z,2.70
2023-05-09T13:15:40.360Z,2.70
2023-05-09T13:16:40.342Z,2.50
2023-05-09T13:17:40.312Z,2.60
2023-05-09T13:18:40.335Z,2.50
2023-05-09T13:19:40.372Z,2.60
2023-05-09T13:20:40.326Z,2.50
2023-05-09T13:21:40.325Z,2.70
2023-05-09T13:22:40.344Z,2.80
2023-05-09T13:23:40.277Z,3.20
2023-05-09T13:24:40.271Z,2.60
2023-05-09T13:25:40.250Z,2.90
2023-05-09T13:26:40.252Z,3.30
2023-05-09T13:27:40.285Z,2.80
2023-05-09T13:28:40.222Z,3.00
2023-05-09T13:29:40.358Z,2.90
2023-05-09T13:30:40.335Z,2.70